Station History

Weather Underground - logo

Station Historical Data
Daily Summary for December 20, 2017 Units:  Both    English   Metric
« Previous Day
Next Day »
Daily Weekly Monthly Yearly Custom
  High: Low: Average:
Temperature: 49.9 °F /  9.9 °C 36.0 °F /  2.2 °C 44.1 °F /  6.7 °C
Dew Point: 44.1 °F /  6.7 °C 33.1 °F /  0.6 °C 38.5 °F /  3.6 °C
Humidity: 95 % 67 % 81 %
Wind Speed: 12.7 mph /  20.4 km/h - 1.4 mph /  2.3 km/h
Wind Gust: 12.7 mph /  20.4 km/h - -
Wind:- - SSW
Pressure: 30.21 in /  1022.9 hPa 30.12 in /  1019.9 hPa -
Precipitation: 0.04 in /  1.02 mm    
Historical Graphs
 
 
Tabular Data for December 20, 2017
Time Temperature Dew Point Pressure Wind Wind Speed Wind Gust Humidity Rainfall Rate (Hourly)
00:03 42.2 °F /  5.7 °C 34.5 °F /  1.4 °C 30.16 in /  1021.2 hPa Calm     74 % 0.00 in /  0 mm
00:06 42.2 °F /  5.7 °C 34.5 °F /  1.4 °C 30.16 in /  1021.2 hPa Calm     74 % 0.00 in /  0 mm
00:07 42.1 °F /  5.6 °C 34.4 °F /  1.3 °C 30.16 in /  1021.2 hPa Calm     74 % 0.00 in /  0 mm
00:12 42.2 °F /  5.7 °C 34.5 °F /  1.4 °C 30.16 in /  1021.2 hPa Calm     74 % 0.00 in /  0 mm
00:17 42.0 °F /  5.6 °C 34.3 °F /  1.3 °C 30.16 in /  1021.2 hPa Calm     74 % 0.00 in /  0 mm
00:22 41.8 °F /  5.4 °C 34.5 °F /  1.4 °C 30.16 in /  1021.2 hPa Calm     75 % 0.00 in /  0 mm
00:26 41.9 °F /  5.5 °C 34.6 °F /  1.4 °C 30.16 in /  1021.2 hPa Calm     75 % 0.00 in /  0 mm
00:31 42.0 °F /  5.6 °C 34.6 °F /  1.4 °C 30.16 in /  1021.2 hPa Calm     75 % 0.00 in /  0 mm
00:36 41.9 °F /  5.5 °C 34.6 °F /  1.4 °C 30.16 in /  1021.2 hPa Calm     75 % 0.00 in /  0 mm
00:41 41.8 °F /  5.4 °C 34.5 °F /  1.4 °C 30.16 in /  1021.2 hPa Calm     75 % 0.00 in /  0 mm
00:43 41.7 °F /  5.4 °C 34.4 °F /  1.3 °C 30.16 in /  1021.2 hPa Calm     75 % 0.00 in /  0 mm
00:48 40.8 °F /  4.9 °C 34.1 °F /  1.2 °C 30.15 in /  1020.9 hPa Calm     77 % 0.00 in /  0 mm
00:50 40.4 °F /  4.7 °C 34.1 °F /  1.2 °C 30.15 in /  1020.9 hPa Calm     78 % 0.00 in /  0 mm
00:55 39.8 °F /  4.3 °C 34.1 °F /  1.2 °C 30.15 in /  1020.9 hPa Calm     80 % 0.00 in /  0 mm
00:57 39.7 °F /  4.3 °C 34.0 °F /  1.1 °C 30.15 in /  1020.9 hPa Calm     80 % 0.00 in /  0 mm
01:02 39.5 °F /  4.2 °C 34.2 °F /  1.2 °C 30.15 in /  1020.9 hPa Calm     81 % 0.00 in /  0 mm
01:07 39.6 °F /  4.2 °C 34.2 °F /  1.2 °C 30.15 in /  1020.9 hPa Calm     81 % 0.00 in /  0 mm
01:08 39.6 °F /  4.2 °C 34.2 °F /  1.2 °C 30.15 in /  1020.9 hPa Calm     81 % 0.00 in /  0 mm
01:13 39.6 °F /  4.2 °C 34.2 °F /  1.2 °C 30.15 in /  1020.9 hPa Calm     81 % 0.00 in /  0 mm
01:14 39.6 °F /  4.2 °C 34.2 °F /  1.2 °C 30.15 in /  1020.9 hPa Calm     81 % 0.00 in /  0 mm
01:19 39.7 °F /  4.3 °C 34.7 °F /  1.5 °C 30.14 in /  1020.5 hPa Calm     82 % 0.00 in /  0 mm
01:20 39.9 °F /  4.4 °C 34.5 °F /  1.4 °C 30.14 in /  1020.5 hPa Calm     81 % 0.00 in /  0 mm
01:25 40.4 °F /  4.7 °C 35.0 °F /  1.7 °C 30.14 in /  1020.5 hPa Calm     81 % 0.00 in /  0 mm
01:26 40.4 °F /  4.7 °C 35.0 °F /  1.7 °C 30.14 in /  1020.5 hPa Calm     81 % 0.00 in /  0 mm
01:31 40.7 °F /  4.8 °C 35.0 °F /  1.7 °C 30.14 in /  1020.5 hPa Calm     80 % 0.00 in /  0 mm
01:33 40.5 °F /  4.7 °C 34.8 °F /  1.6 °C 30.14 in /  1020.5 hPa Calm     80 % 0.00 in /  0 mm
01:38 39.9 °F /  4.4 °C 34.5 °F /  1.4 °C 30.13 in /  1020.2 hPa Calm     81 % 0.00 in /  0 mm
01:39 39.9 °F /  4.4 °C 34.5 °F /  1.4 °C 30.13 in /  1020.2 hPa Calm     81 % 0.00 in /  0 mm
01:44 39.6 °F /  4.2 °C 34.6 °F /  1.4 °C 30.13 in /  1020.2 hPa Calm     82 % 0.00 in /  0 mm
01:49 39.6 °F /  4.2 °C 34.9 °F /  1.6 °C 30.13 in /  1020.2 hPa Calm     83 % 0.00 in /  0 mm
01:51 39.6 °F /  4.2 °C 34.6 °F /  1.4 °C 30.13 in /  1020.2 hPa Calm     82 % 0.00 in /  0 mm
01:55 39.7 °F /  4.3 °C 34.7 °F /  1.5 °C 30.13 in /  1020.2 hPa Calm     82 % 0.00 in /  0 mm
02:00 39.7 °F /  4.3 °C 34.7 °F /  1.5 °C 30.13 in /  1020.2 hPa Calm     82 % 0.00 in /  0 mm
02:02 39.8 °F /  4.3 °C 34.8 °F /  1.6 °C 30.13 in /  1020.2 hPa Calm     82 % 0.00 in /  0 mm
02:06 39.8 °F /  4.3 °C 34.8 °F /  1.6 °C 30.13 in /  1020.2 hPa Calm     82 % 0.00 in /  0 mm
02:08 39.8 °F /  4.3 °C 34.8 °F /  1.6 °C 30.13 in /  1020.2 hPa Calm     82 % 0.00 in /  0 mm
02:13 39.8 °F /  4.3 °C 34.8 °F /  1.6 °C 30.14 in /  1020.5 hPa Calm     82 % 0.00 in /  0 mm
02:15 39.9 °F /  4.4 °C 34.5 °F /  1.4 °C 30.14 in /  1020.5 hPa Calm     81 % 0.00 in /  0 mm
02:18 40.0 °F /  4.4 °C 34.3 °F /  1.3 °C 30.14 in /  1020.5 hPa Calm     80 % 0.00 in /  0 mm
02:23 40.2 °F /  4.6 °C 34.5 °F /  1.4 °C 30.14 in /  1020.5 hPa Calm     80 % 0.00 in /  0 mm
02:26 40.3 °F /  4.6 °C 34.3 °F /  1.3 °C 30.14 in /  1020.5 hPa Calm     79 % 0.00 in /  0 mm
02:29 40.3 °F /  4.6 °C 34.0 °F /  1.1 °C 30.14 in /  1020.5 hPa Calm     78 % 0.00 in /  0 mm
02:35 40.4 °F /  4.7 °C 33.8 °F /  1 °C 30.14 in /  1020.5 hPa Calm     77 % 0.00 in /  0 mm
02:37 40.6 °F /  4.8 °C 33.6 °F /  0.9 °C 30.14 in /  1020.5 hPa Calm     76 % 0.00 in /  0 mm
02:40 40.7 °F /  4.8 °C 33.7 °F /  0.9 °C 30.14 in /  1020.5 hPa Calm     76 % 0.00 in /  0 mm
02:45 41.0 °F /  5 °C 33.7 °F /  0.9 °C 30.14 in /  1020.5 hPa Calm     75 % 0.00 in /  0 mm
02:46 41.0 °F /  5 °C 33.7 °F /  0.9 °C 30.14 in /  1020.5 hPa Calm     75 % 0.00 in /  0 mm
02:51 41.4 °F /  5.2 °C 33.4 °F /  0.8 °C 30.14 in /  1020.5 hPa Calm     73 % 0.00 in /  0 mm
02:53 41.6 °F /  5.3 °C 33.2 °F /  0.7 °C 30.14 in /  1020.5 hPa Calm     72 % 0.00 in /  0 mm
02:58 42.2 °F /  5.7 °C 33.1 °F /  0.6 °C 30.14 in /  1020.5 hPa Calm     70 % 0.00 in /  0 mm
03:00 42.2 °F /  5.7 °C 33.1 °F /  0.6 °C 30.14 in /  1020.5 hPa Calm     70 % 0.00 in /  0 mm
03:01 42.3 °F /  5.7 °C 33.2 °F /  0.7 °C 30.14 in /  1020.5 hPa Calm     70 % 0.00 in /  0 mm
03:05 42.4 °F /  5.8 °C 33.3 °F /  0.7 °C 30.14 in /  1020.5 hPa Calm     70 % 0.00 in /  0 mm
03:08 42.5 °F /  5.8 °C 33.4 °F /  0.8 °C 30.14 in /  1020.5 hPa Calm     70 % 0.00 in /  0 mm
03:11 42.5 °F /  5.8 °C 33.4 °F /  0.8 °C 30.14 in /  1020.5 hPa Calm     70 % 0.00 in /  0 mm
03:15 42.6 °F /  5.9 °C 33.1 °F /  0.6 °C 30.14 in /  1020.5 hPa Calm     69 % 0.00 in /  0 mm
03:18 42.6 °F /  5.9 °C 33.1 °F /  0.6 °C 30.14 in /  1020.5 hPa Calm     69 % 0.00 in /  0 mm
03:23 42.6 °F /  5.9 °C 33.1 °F /  0.6 °C 30.14 in /  1020.5 hPa Calm     69 % 0.00 in /  0 mm
03:24 42.6 °F /  5.9 °C 33.5 °F /  0.8 °C 30.14 in /  1020.5 hPa Calm     70 % 0.00 in /  0 mm
03:29 42.6 °F /  5.9 °C 33.1 °F /  0.6 °C 30.14 in /  1020.5 hPa Calm     69 % 0.00 in /  0 mm
03:32 42.7 °F /  5.9 °C 33.9 °F /  1.1 °C 30.14 in /  1020.5 hPa Calm     71 % 0.00 in /  0 mm
03:37 42.7 °F /  5.9 °C 33.9 °F /  1.1 °C 30.14 in /  1020.5 hPa Calm     71 % 0.00 in /  0 mm
03:40 42.9 °F /  6.1 °C 33.4 °F /  0.8 °C 30.15 in /  1020.9 hPa Calm     69 % 0.00 in /  0 mm
03:44 43.2 °F /  6.2 °C 33.7 °F /  0.9 °C 30.15 in /  1020.9 hPa Calm     69 % 0.00 in /  0 mm
03:45 43.3 °F /  6.3 °C 33.8 °F /  1 °C 30.14 in /  1020.5 hPa Calm     69 % 0.00 in /  0 mm
03:50 43.6 °F /  6.4 °C 33.4 °F /  0.8 °C 30.14 in /  1020.5 hPa Calm     67 % 0.00 in /  0 mm
03:51 43.6 °F /  6.4 °C 33.7 °F /  0.9 °C 30.14 in /  1020.5 hPa Calm     68 % 0.00 in /  0 mm
03:56 43.7 °F /  6.5 °C 33.8 °F /  1 °C 30.13 in /  1020.2 hPa Calm     68 % 0.00 in /  0 mm
03:59 43.8 °F /  6.6 °C 33.9 °F /  1.1 °C 30.14 in /  1020.5 hPa Calm     68 % 0.00 in /  0 mm
04:02 43.9 °F /  6.6 °C 34.0 °F /  1.1 °C 30.14 in /  1020.5 hPa Calm     68 % 0.00 in /  0 mm
04:07 43.9 °F /  6.6 °C 34.0 °F /  1.1 °C 30.14 in /  1020.5 hPa Calm     68 % 0.00 in /  0 mm
04:12 43.7 °F /  6.5 °C 34.2 °F /  1.2 °C 30.14 in /  1020.5 hPa Calm     69 % 0.00 in /  0 mm
04:17 43.5 °F /  6.4 °C 34.4 °F /  1.3 °C 30.14 in /  1020.5 hPa Calm     70 % 0.00 in /  0 mm
04:18 43.5 °F /  6.4 °C 34.7 °F /  1.5 °C 30.13 in /  1020.2 hPa Calm     71 % 0.00 in /  0 mm
04:23 43.3 °F /  6.3 °C 34.9 °F /  1.6 °C 30.13 in /  1020.2 hPa Calm     72 % 0.00 in /  0 mm
04:27 43.3 °F /  6.3 °C 34.9 °F /  1.6 °C 30.13 in /  1020.2 hPa Calm     72 % 0.00 in /  0 mm
04:32 43.5 °F /  6.4 °C 34.4 °F /  1.3 °C 30.13 in /  1020.2 hPa Calm     70 % 0.00 in /  0 mm
04:33 43.6 °F /  6.4 °C 34.5 °F /  1.4 °C 30.13 in /  1020.2 hPa Calm     70 % 0.00 in /  0 mm
04:35 43.6 °F /  6.4 °C 35.2 °F /  1.8 °C 30.13 in /  1020.2 hPa Calm     72 % 0.00 in /  0 mm
04:38 43.5 °F /  6.4 °C 35.4 °F /  1.9 °C 30.13 in /  1020.2 hPa Calm     73 % 0.00 in /  0 mm
04:48 43.6 °F /  6.4 °C 34.5 °F /  1.4 °C 30.13 in /  1020.2 hPa Calm     70 % 0.00 in /  0 mm
04:49 43.7 °F /  6.5 °C 34.6 °F /  1.4 °C 30.13 in /  1020.2 hPa Calm     70 % 0.00 in /  0 mm
04:50 43.7 °F /  6.5 °C 34.9 °F /  1.6 °C 30.13 in /  1020.2 hPa Calm     71 % 0.00 in /  0 mm
04:55 43.7 °F /  6.5 °C 34.2 °F /  1.2 °C 30.13 in /  1020.2 hPa Calm     69 % 0.00 in /  0 mm
04:56 43.8 °F /  6.6 °C 34.3 °F /  1.3 °C 30.13 in /  1020.2 hPa Calm     69 % 0.00 in /  0 mm
05:01 44.0 °F /  6.7 °C 35.6 °F /  2 °C 30.13 in /  1020.2 hPa Calm     72 % 0.00 in /  0 mm
05:05 43.8 °F /  6.6 °C 35.4 °F /  1.9 °C 30.13 in /  1020.2 hPa SSE 1.2 mph /  1.9 km/h   72 % 0.00 in /  0 mm
05:08 43.8 °F /  6.6 °C 35.4 °F /  1.9 °C 30.13 in /  1020.2 hPa Calm     72 % 0.00 in /  0 mm
05:10 43.7 °F /  6.5 °C 35.3 °F /  1.8 °C 30.13 in /  1020.2 hPa Calm     72 % 0.00 in /  0 mm
05:21 43.6 °F /  6.4 °C 35.9 °F /  2.2 °C 30.12 in /  1019.9 hPa Calm     74 % 0.00 in /  0 mm
05:26 43.9 °F /  6.6 °C 36.5 °F /  2.5 °C 30.12 in /  1019.9 hPa Calm   0.1 mph /  0.2 km/h 75 % 0.00 in /  0 mm
05:31 44.3 °F /  6.8 °C 37.2 °F /  2.9 °C 30.12 in /  1019.9 hPa Calm     76 % 0.00 in /  0 mm
05:33 44.4 °F /  6.9 °C 37.3 °F /  2.9 °C 30.12 in /  1019.9 hPa Calm     76 % 0.00 in /  0 mm
05:40 45.0 °F /  7.2 °C 37.2 °F /  2.9 °C 30.12 in /  1019.9 hPa SSE 1.2 mph /  1.9 km/h 1.2 mph /  1.9 km/h 74 % 0.00 in /  0 mm
05:45 45.3 °F /  7.4 °C 37.2 °F /  2.9 °C 30.13 in /  1020.2 hPa SE 1.2 mph /  1.9 km/h 1.2 mph /  1.9 km/h 73 % 0.00 in /  0 mm
05:46 45.3 °F /  7.4 °C 36.8 °F /  2.7 °C 30.13 in /  1020.2 hPa SE 1.2 mph /  1.9 km/h 1.2 mph /  1.9 km/h 72 % 0.00 in /  0 mm
05:51 45.3 °F /  7.4 °C 36.8 °F /  2.7 °C 30.13 in /  1020.2 hPa SE 1.2 mph /  1.9 km/h   72 % 0.00 in /  0 mm
05:52 45.2 °F /  7.3 °C 36.7 °F /  2.6 °C 30.13 in /  1020.2 hPa SE 1.2 mph /  1.9 km/h   72 % 0.00 in /  0 mm
05:56 45.2 °F /  7.3 °C 36.7 °F /  2.6 °C 30.13 in /  1020.2 hPa Calm     72 % 0.00 in /  0 mm
05:58 45.1 °F /  7.3 °C 37.0 °F /  2.8 °C 30.13 in /  1020.2 hPa Calm     73 % 0.00 in /  0 mm
06:02 45.0 °F /  7.2 °C 36.9 °F /  2.7 °C 30.14 in /  1020.5 hPa SE 1.2 mph /  1.9 km/h   73 % 0.00 in /  0 mm
06:07 44.8 °F /  7.1 °C 36.7 °F /  2.6 °C 30.15 in /  1020.9 hPa Calm     73 % 0.00 in /  0 mm
06:08 44.8 °F /  7.1 °C 36.7 °F /  2.6 °C 30.15 in /  1020.9 hPa Calm     73 % 0.00 in /  0 mm
06:11 44.7 °F /  7.1 °C 36.6 °F /  2.6 °C 30.15 in /  1020.9 hPa Calm     73 % 0.00 in /  0 mm
06:14 44.7 °F /  7.1 °C 36.9 °F /  2.7 °C 30.14 in /  1020.5 hPa Calm     74 % 0.00 in /  0 mm
06:19 44.7 °F /  7.1 °C 36.9 °F /  2.7 °C 30.15 in /  1020.9 hPa Calm     74 % 0.00 in /  0 mm
06:22 44.7 °F /  7.1 °C 37.3 °F /  2.9 °C 30.15 in /  1020.9 hPa Calm     75 % 0.00 in /  0 mm
06:24 44.7 °F /  7.1 °C 37.3 °F /  2.9 °C 30.15 in /  1020.9 hPa Calm     75 % 0.00 in /  0 mm
06:28 44.9 °F /  7.2 °C 37.8 °F /  3.2 °C 30.15 in /  1020.9 hPa SE 1.2 mph /  1.9 km/h 1.2 mph /  1.9 km/h 76 % 0.00 in /  0 mm
06:33 45.3 °F /  7.4 °C 37.8 °F /  3.2 °C 30.15 in /  1020.9 hPa SE 1.2 mph /  1.9 km/h   75 % 0.00 in /  0 mm
06:38 45.6 °F /  7.6 °C 38.1 °F /  3.4 °C 30.15 in /  1020.9 hPa SE 2.3 mph /  3.7 km/h 2.3 mph /  3.7 km/h 75 % 0.00 in /  0 mm
06:39 45.6 °F /  7.6 °C 38.1 °F /  3.4 °C 30.15 in /  1020.9 hPa SE 3.5 mph /  5.6 km/h 3.5 mph /  5.6 km/h 75 % 0.00 in /  0 mm
06:41 45.8 °F /  7.7 °C 38.3 °F /  3.5 °C 30.14 in /  1020.5 hPa SE 2.3 mph /  3.7 km/h 2.3 mph /  3.7 km/h 75 % 0.00 in /  0 mm
06:46 46.3 °F /  7.9 °C 38.5 °F /  3.6 °C 30.14 in /  1020.5 hPa SE 1.2 mph /  1.9 km/h   74 % 0.00 in /  0 mm
06:48 46.4 °F /  8 °C 38.6 °F /  3.7 °C 30.14 in /  1020.5 hPa SE 1.2 mph /  1.9 km/h 1.2 mph /  1.9 km/h 74 % 0.00 in /  0 mm
06:50 46.6 °F /  8.1 °C 38.4 °F /  3.6 °C 30.14 in /  1020.5 hPa SE 1.2 mph /  1.9 km/h   73 % 0.00 in /  0 mm
06:55 46.7 °F /  8.2 °C 38.5 °F /  3.6 °C 30.14 in /  1020.5 hPa SE 1.2 mph /  1.9 km/h 1.2 mph /  1.9 km/h 73 % 0.00 in /  0 mm
06:57 46.7 °F /  8.2 °C 38.5 °F /  3.6 °C 30.14 in /  1020.5 hPa SE 1.2 mph /  1.9 km/h 1.2 mph /  1.9 km/h 73 % 0.00 in /  0 mm
07:02 46.6 °F /  8.1 °C 38.4 °F /  3.6 °C 30.14 in /  1020.5 hPa SE 1.2 mph /  1.9 km/h 1.2 mph /  1.9 km/h 73 % 0.00 in /  0 mm
07:04 46.5 °F /  8.1 °C 38.3 °F /  3.5 °C 30.14 in /  1020.5 hPa SE 2.3 mph /  3.7 km/h   73 % 0.00 in /  0 mm
07:07 46.4 °F /  8 °C 38.2 °F /  3.4 °C 30.14 in /  1020.5 hPa SE 2.3 mph /  3.7 km/h 2.3 mph /  3.7 km/h 73 % 0.00 in /  0 mm
07:12 46.2 °F /  7.9 °C 38.0 °F /  3.3 °C 30.14 in /  1020.5 hPa SE 2.3 mph /  3.7 km/h 2.3 mph /  3.7 km/h 73 % 0.00 in /  0 mm
07:13 46.2 °F /  7.9 °C 38.0 °F /  3.3 °C 30.14 in /  1020.5 hPa SE 2.3 mph /  3.7 km/h 2.3 mph /  3.7 km/h 73 % 0.00 in /  0 mm
07:18 46.3 °F /  7.9 °C 38.1 °F /  3.4 °C 30.14 in /  1020.5 hPa ESE 1.2 mph /  1.9 km/h 1.2 mph /  1.9 km/h 73 % 0.00 in /  0 mm
07:19 46.3 °F /  7.9 °C 38.1 °F /  3.4 °C 30.14 in /  1020.5 hPa Calm     73 % 0.00 in /  0 mm
07:24 46.1 °F /  7.8 °C 38.3 °F /  3.5 °C 30.14 in /  1020.5 hPa SE 2.3 mph /  3.7 km/h 2.3 mph /  3.7 km/h 74 % 0.00 in /  0 mm
07:29 46.0 °F /  7.8 °C 38.5 °F /  3.6 °C 30.15 in /  1020.9 hPa Calm     75 % 0.00 in /  0 mm
07:30 46.0 °F /  7.8 °C 38.5 °F /  3.6 °C 30.15 in /  1020.9 hPa Calm     75 % 0.00 in /  0 mm
07:35 45.9 °F /  7.7 °C 38.8 °F /  3.8 °C 30.15 in /  1020.9 hPa Calm     76 % 0.00 in /  0 mm
07:36 45.9 °F /  7.7 °C 38.8 °F /  3.8 °C 30.15 in /  1020.9 hPa Calm     76 % 0.00 in /  0 mm
07:41 45.8 °F /  7.7 °C 38.7 °F /  3.7 °C 30.15 in /  1020.9 hPa Calm     76 % 0.00 in /  0 mm
07:42 45.7 °F /  7.6 °C 38.6 °F /  3.7 °C 30.15 in /  1020.9 hPa Calm   0.1 mph /  0.2 km/h 76 % 0.00 in /  0 mm
07:48 45.5 °F /  7.5 °C 38.7 °F /  3.7 °C 30.15 in /  1020.9 hPa Calm     77 % 0.00 in /  0 mm
07:49 45.5 °F /  7.5 °C 38.7 °F /  3.7 °C 30.16 in /  1021.2 hPa Calm     77 % 0.00 in /  0 mm
07:54 45.2 °F /  7.3 °C 38.4 °F /  3.6 °C 30.16 in /  1021.2 hPa Calm   0.3 mph /  0.5 km/h 77 % 0.00 in /  0 mm
07:59 45.1 °F /  7.3 °C 38.3 °F /  3.5 °C 30.16 in /  1021.2 hPa ESE 1.2 mph /  1.9 km/h 1.2 mph /  1.9 km/h 77 % 0.00 in /  0 mm
08:04 44.9 °F /  7.2 °C 38.1 °F /  3.4 °C 30.16 in /  1021.2 hPa SE 3.5 mph /  5.6 km/h 3.5 mph /  5.6 km/h 77 % 0.00 in /  0 mm
08:08 44.7 °F /  7.1 °C 37.9 °F /  3.3 °C 30.16 in /  1021.2 hPa SE 1.2 mph /  1.9 km/h   77 % 0.00 in /  0 mm
08:11 44.7 °F /  7.1 °C 37.9 °F /  3.3 °C 30.16 in /  1021.2 hPa SE 1.2 mph /  1.9 km/h   77 % 0.00 in /  0 mm
08:16 44.6 °F /  7 °C 37.5 °F /  3.1 °C 30.16 in /  1021.2 hPa Calm     76 % 0.00 in /  0 mm
08:17 44.5 °F /  6.9 °C 37.4 °F /  3 °C 30.16 in /  1021.2 hPa SE 1.2 mph /  1.9 km/h 1.2 mph /  1.9 km/h 76 % 0.00 in /  0 mm
08:23 44.4 °F /  6.9 °C 37.3 °F /  2.9 °C 30.16 in /  1021.2 hPa Calm     76 % 0.00 in /  0 mm
08:27 44.3 °F /  6.8 °C 37.2 °F /  2.9 °C 30.16 in /  1021.2 hPa Calm     76 % 0.00 in /  0 mm
08:32 44.2 °F /  6.8 °C 37.1 °F /  2.8 °C 30.16 in /  1021.2 hPa Calm     76 % 0.00 in /  0 mm
08:34 44.2 °F /  6.8 °C 37.1 °F /  2.8 °C 30.17 in /  1021.6 hPa SE 1.2 mph /  1.9 km/h   76 % 0.00 in /  0 mm
08:35 44.2 °F /  6.8 °C 37.1 °F /  2.8 °C 30.17 in /  1021.6 hPa Calm     76 % 0.00 in /  0 mm
08:40 44.3 °F /  6.8 °C 37.2 °F /  2.9 °C 30.17 in /  1021.6 hPa Calm     76 % 0.00 in /  0 mm
08:42 44.3 °F /  6.8 °C 37.2 °F /  2.9 °C 30.17 in /  1021.6 hPa Calm     76 % 0.00 in /  0 mm
08:47 44.5 °F /  6.9 °C 37.4 °F /  3 °C 30.16 in /  1021.2 hPa Calm     76 % 0.00 in /  0 mm
08:48 44.6 °F /  7 °C 37.5 °F /  3.1 °C 30.16 in /  1021.2 hPa SE 2.0 mph /  3.2 km/h 2.0 mph /  3.2 km/h 76 % 0.00 in /  0 mm
08:51 44.8 °F /  7.1 °C 37.7 °F /  3.2 °C 30.16 in /  1021.2 hPa Calm     76 % 0.00 in /  0 mm
08:54 45.0 °F /  7.2 °C 37.9 °F /  3.3 °C 30.16 in /  1021.2 hPa SE 3.5 mph /  5.6 km/h 3.5 mph /  5.6 km/h 76 % 0.00 in /  0 mm
08:59 45.1 °F /  7.3 °C 37.6 °F /  3.1 °C 30.16 in /  1021.2 hPa ESE 2.3 mph /  3.7 km/h 2.3 mph /  3.7 km/h 75 % 0.00 in /  0 mm
09:00 45.1 °F /  7.3 °C 37.6 °F /  3.1 °C 30.16 in /  1021.2 hPa ESE 2.3 mph /  3.7 km/h 2.3 mph /  3.7 km/h 75 % 0.00 in /  0 mm
09:05 45.3 °F /  7.4 °C 37.8 °F /  3.2 °C 30.16 in /  1021.2 hPa SE 3.5 mph /  5.6 km/h 3.5 mph /  5.6 km/h 75 % 0.00 in /  0 mm
09:06 45.3 °F /  7.4 °C 37.5 °F /  3.1 °C 30.16 in /  1021.2 hPa SE 1.2 mph /  1.9 km/h 1.2 mph /  1.9 km/h 74 % 0.00 in /  0 mm
09:08 45.4 °F /  7.4 °C 37.6 °F /  3.1 °C 30.16 in /  1021.2 hPa SE 1.2 mph /  1.9 km/h 1.2 mph /  1.9 km/h 74 % 0.00 in /  0 mm
09:14 45.6 °F /  7.6 °C 37.8 °F /  3.2 °C 30.16 in /  1021.2 hPa East 3.5 mph /  5.6 km/h 3.5 mph /  5.6 km/h 74 % 0.00 in /  0 mm
09:17 45.7 °F /  7.6 °C 37.5 °F /  3.1 °C 30.16 in /  1021.2 hPa East 3.5 mph /  5.6 km/h 3.5 mph /  5.6 km/h 73 % 0.00 in /  0 mm
09:19 45.8 °F /  7.7 °C 37.6 °F /  3.1 °C 30.16 in /  1021.2 hPa NNE 3.5 mph /  5.6 km/h 3.5 mph /  5.6 km/h 73 % 0.00 in /  0 mm
09:24 46.1 °F /  7.8 °C 37.9 °F /  3.3 °C 30.17 in /  1021.6 hPa NNE 2.3 mph /  3.7 km/h   73 % 0.00 in /  0 mm
09:26 46.2 °F /  7.9 °C 38.0 °F /  3.3 °C 30.17 in /  1021.6 hPa NW 1.2 mph /  1.9 km/h 1.2 mph /  1.9 km/h 73 % 0.00 in /  0 mm
09:27 46.2 °F /  7.9 °C 38.0 °F /  3.3 °C 30.17 in /  1021.6 hPa NW 1.2 mph /  1.9 km/h 1.2 mph /  1.9 km/h 73 % 0.00 in /  0 mm
09:32 46.4 °F /  8 °C 37.9 °F /  3.3 °C 30.18 in /  1021.9 hPa West 2.3 mph /  3.7 km/h 2.3 mph /  3.7 km/h 72 % 0.00 in /  0 mm
09:37 46.3 °F /  7.9 °C 37.8 °F /  3.2 °C 30.19 in /  1022.2 hPa NW 2.3 mph /  3.7 km/h 2.3 mph /  3.7 km/h 72 % 0.00 in /  0 mm
09:38 46.3 °F /  7.9 °C 38.1 °F /  3.4 °C 30.19 in /  1022.2 hPa NW 2.3 mph /  3.7 km/h 2.3 mph /  3.7 km/h 73 % 0.00 in /  0 mm
09:43 45.9 °F /  7.7 °C 37.7 °F /  3.2 °C 30.19 in /  1022.2 hPa NW 1.2 mph /  1.9 km/h 1.2 mph /  1.9 km/h 73 % 0.00 in /  0 mm
09:44 45.8 °F /  7.7 °C 37.6 °F /  3.1 °C 30.19 in /  1022.2 hPa NW 1.2 mph /  1.9 km/h   73 % 0.00 in /  0 mm
09:49 45.7 °F /  7.6 °C 37.5 °F /  3.1 °C 30.19 in /  1022.2 hPa NW 1.2 mph /  1.9 km/h 1.2 mph /  1.9 km/h 73 % 0.00 in /  0 mm
09:50 45.7 °F /  7.6 °C 37.5 °F /  3.1 °C 30.19 in /  1022.2 hPa WNW 1.2 mph /  1.9 km/h 1.2 mph /  1.9 km/h 73 % 0.00 in /  0 mm
09:55 45.7 °F /  7.6 °C 37.5 °F /  3.1 °C 30.19 in /  1022.2 hPa Calm     73 % 0.00 in /  0 mm
10:00 45.7 °F /  7.6 °C 36.8 °F /  2.7 °C 30.18 in /  1021.9 hPa Calm     71 % 0.00 in /  0 mm
10:01 45.7 °F /  7.6 °C 36.8 °F /  2.7 °C 30.18 in /  1021.9 hPa Calm     71 % 0.00 in /  0 mm
10:03 45.8 °F /  7.7 °C 36.9 °F /  2.7 °C 30.19 in /  1022.2 hPa Calm     71 % 0.00 in /  0 mm
10:08 46.0 °F /  7.8 °C 37.5 °F /  3.1 °C 30.18 in /  1021.9 hPa Calm     72 % 0.00 in /  0 mm
10:12 46.1 °F /  7.8 °C 37.2 °F /  2.9 °C 30.17 in /  1021.6 hPa West 2.3 mph /  3.7 km/h 2.3 mph /  3.7 km/h 71 % 0.00 in /  0 mm
10:13 46.1 °F /  7.8 °C 37.9 °F /  3.3 °C 30.18 in /  1021.9 hPa West 1.2 mph /  1.9 km/h   73 % 0.00 in /  0 mm
10:18 46.3 °F /  7.9 °C 37.4 °F /  3 °C 30.19 in /  1022.2 hPa West 1.2 mph /  1.9 km/h   71 % 0.00 in /  0 mm
10:19 46.3 °F /  7.9 °C 37.4 °F /  3 °C 30.19 in /  1022.2 hPa Calm     71 % 0.00 in /  0 mm
10:24 46.4 °F /  8 °C 37.5 °F /  3.1 °C 30.19 in /  1022.2 hPa WNW 1.0 mph /  1.6 km/h 1.0 mph /  1.6 km/h 71 % 0.00 in /  0 mm
10:28 46.6 °F /  8.1 °C 37.7 °F /  3.2 °C 30.20 in /  1022.6 hPa Calm     71 % 0.00 in /  0 mm
10:33 46.8 °F /  8.2 °C 37.2 °F /  2.9 °C 30.20 in /  1022.6 hPa NW 1.2 mph /  1.9 km/h 1.2 mph /  1.9 km/h 69 % 0.00 in /  0 mm
10:38 46.9 °F /  8.3 °C 37.6 °F /  3.1 °C 30.20 in /  1022.6 hPa NW 3.5 mph /  5.6 km/h 3.5 mph /  5.6 km/h 70 % 0.00 in /  0 mm
10:39 46.9 °F /  8.3 °C 38.0 °F /  3.3 °C 30.19 in /  1022.2 hPa NW 3.5 mph /  5.6 km/h 3.5 mph /  5.6 km/h 71 % 0.00 in /  0 mm
10:44 47.0 °F /  8.3 °C 38.1 °F /  3.4 °C 30.19 in /  1022.2 hPa NW 2.3 mph /  3.7 km/h 2.3 mph /  3.7 km/h 71 % 0.00 in /  0 mm
10:49 47.3 °F /  8.5 °C 38.7 °F /  3.7 °C 30.18 in /  1021.9 hPa NW 2.3 mph /  3.7 km/h 2.3 mph /  3.7 km/h 72 % 0.00 in /  0 mm
10:54 47.7 °F /  8.7 °C 38.8 °F /  3.8 °C 30.18 in /  1021.9 hPa NW 1.2 mph /  1.9 km/h 1.2 mph /  1.9 km/h 71 % 0.00 in /  0 mm
10:55 47.7 °F /  8.7 °C 39.1 °F /  3.9 °C 30.18 in /  1021.9 hPa NW 2.3 mph /  3.7 km/h 2.3 mph /  3.7 km/h 72 % 0.00 in /  0 mm
11:02 48.2 °F /  9 °C 38.9 °F /  3.8 °C 30.19 in /  1022.2 hPa WNW 3.5 mph /  5.6 km/h 3.5 mph /  5.6 km/h 70 % 0.00 in /  0 mm
11:05 48.4 °F /  9.1 °C 39.1 °F /  3.9 °C 30.19 in /  1022.2 hPa WNW 3.0 mph /  4.8 km/h 3.0 mph /  4.8 km/h 70 % 0.00 in /  0 mm
11:10 48.7 °F /  9.3 °C 39.0 °F /  3.9 °C 30.19 in /  1022.2 hPa NNW 3.5 mph /  5.6 km/h 3.5 mph /  5.6 km/h 69 % 0.00 in /  0 mm
11:11 48.8 °F /  9.3 °C 39.1 °F /  3.9 °C 30.19 in /  1022.2 hPa WNW 3.5 mph /  5.6 km/h 3.5 mph /  5.6 km/h 69 % 0.00 in /  0 mm
11:16 49.0 °F /  9.4 °C 38.9 °F /  3.8 °C 30.19 in /  1022.2 hPa NW 4.6 mph /  7.4 km/h 4.6 mph /  7.4 km/h 68 % 0.00 in /  0 mm
11:21 49.3 °F /  9.6 °C 39.6 °F /  4.2 °C 30.19 in /  1022.2 hPa NW 4.0 mph /  6.4 km/h 4.0 mph /  6.4 km/h 69 % 0.00 in /  0 mm
11:22 49.4 °F /  9.7 °C 40.0 °F /  4.4 °C 30.19 in /  1022.2 hPa WNW 4.6 mph /  7.4 km/h 4.6 mph /  7.4 km/h 70 % 0.00 in /  0 mm
11:27 49.3 °F /  9.6 °C 42.7 °F /  5.9 °C 30.20 in /  1022.6 hPa NW 9.2 mph /  14.8 km/h 9.2 mph /  14.8 km/h 78 % 0.00 in /  0 mm
11:29 49.0 °F /  9.4 °C 43.1 °F /  6.2 °C 30.19 in /  1022.2 hPa NW 11.5 mph /  18.5 km/h 11.5 mph /  18.5 km/h 80 % 0.00 in /  0 mm
11:34 48.4 °F /  9.1 °C 43.5 °F /  6.4 °C 30.19 in /  1022.2 hPa NW 10.0 mph /  16.1 km/h 10.0 mph /  16.1 km/h 83 % 0.00 in /  0 mm
11:35 48.3 °F /  9.1 °C 43.4 °F /  6.3 °C 30.20 in /  1022.6 hPa North 12.7 mph /  20.4 km/h 12.7 mph /  20.4 km/h 83 % 0.00 in /  0 mm
11:40 47.8 °F /  8.8 °C 43.8 °F /  6.6 °C 30.19 in /  1022.2 hPa NW 6.9 mph /  11.1 km/h 6.9 mph /  11.1 km/h 86 % 0.00 in /  0 mm
11:41 47.7 °F /  8.7 °C 43.7 °F /  6.5 °C 30.19 in /  1022.2 hPa NW 9.2 mph /  14.8 km/h 9.2 mph /  14.8 km/h 86 % 0.00 in /  0 mm
11:46 47.3 °F /  8.5 °C 43.6 °F /  6.4 °C 30.19 in /  1022.2 hPa NW 10.4 mph /  16.7 km/h 10.4 mph /  16.7 km/h 87 % 0.00 in /  0 mm
11:47 47.3 °F /  8.5 °C 43.9 °F /  6.6 °C 30.19 in /  1022.2 hPa NW 6.9 mph /  11.1 km/h 6.9 mph /  11.1 km/h 88 % 0.00 in /  0 mm
11:52 47.1 °F /  8.4 °C 44.0 °F /  6.7 °C 30.20 in /  1022.6 hPa WNW 10.0 mph /  16.1 km/h 10.0 mph /  16.1 km/h 89 % 0.00 in /  0 mm
11:53 47.1 °F /  8.4 °C 44.0 °F /  6.7 °C 30.19 in /  1022.2 hPa NW 10.4 mph /  16.7 km/h 10.4 mph /  16.7 km/h 89 % 0.00 in /  0 mm
11:58 46.9 °F /  8.3 °C 43.8 °F /  6.6 °C 30.19 in /  1022.2 hPa NW 5.8 mph /  9.3 km/h 5.8 mph /  9.3 km/h 89 % 0.00 in /  0 mm
12:00 46.9 °F /  8.3 °C 44.1 °F /  6.7 °C 30.19 in /  1022.2 hPa NW 9.2 mph /  14.8 km/h 9.2 mph /  14.8 km/h 90 % 0.00 in /  0 mm
12:05 46.8 °F /  8.2 °C 44.0 °F /  6.7 °C 30.19 in /  1022.2 hPa NW 3.5 mph /  5.6 km/h 3.5 mph /  5.6 km/h 90 % 0.00 in /  0 mm
12:08 46.7 °F /  8.2 °C 43.9 °F /  6.6 °C 30.19 in /  1022.2 hPa NNW 5.0 mph /  8 km/h 5.0 mph /  8 km/h 90 % 0.00 in /  0 mm
12:13 46.7 °F /  8.2 °C 43.9 °F /  6.6 °C 30.18 in /  1021.9 hPa WNW 10.4 mph /  16.7 km/h 10.4 mph /  16.7 km/h 90 % 0.00 in /  0 mm
12:17 46.5 °F /  8.1 °C 43.1 °F /  6.2 °C 30.18 in /  1021.9 hPa NW 5.8 mph /  9.3 km/h 5.8 mph /  9.3 km/h 88 % 0.00 in /  0 mm
12:22 46.1 °F /  7.8 °C 42.4 °F /  5.8 °C 30.17 in /  1021.6 hPa NNW 5.0 mph /  8 km/h 5.0 mph /  8 km/h 87 % 0.00 in /  0 mm
12:23 46.1 °F /  7.8 °C 42.4 °F /  5.8 °C 30.17 in /  1021.6 hPa NW 3.5 mph /  5.6 km/h 3.5 mph /  5.6 km/h 87 % 0.00 in /  0 mm
12:29 46.0 °F /  7.8 °C 42.3 °F /  5.7 °C 30.17 in /  1021.6 hPa NW 3.5 mph /  5.6 km/h 3.5 mph /  5.6 km/h 87 % 0.00 in /  0 mm
12:34 45.9 °F /  7.7 °C 42.5 °F /  5.8 °C 30.17 in /  1021.6 hPa NW 5.8 mph /  9.3 km/h 5.8 mph /  9.3 km/h 88 % 0.00 in /  0 mm
12:35 46.0 °F /  7.8 °C 42.6 °F /  5.9 °C 30.17 in /  1021.6 hPa NW 5.0 mph /  8 km/h 5.0 mph /  8 km/h 88 % 0.00 in /  0 mm
12:40 46.0 °F /  7.8 °C 42.6 °F /  5.9 °C 30.17 in /  1021.6 hPa NW 3.5 mph /  5.6 km/h 3.5 mph /  5.6 km/h 88 % 0.00 in /  0 mm
12:44 46.0 °F /  7.8 °C 42.6 °F /  5.9 °C 30.17 in /  1021.6 hPa NW 3.5 mph /  5.6 km/h 3.5 mph /  5.6 km/h 88 % 0.00 in /  0 mm
12:49 46.1 °F /  7.8 °C 42.7 °F /  5.9 °C 30.18 in /  1021.9 hPa NW 2.3 mph /  3.7 km/h 2.3 mph /  3.7 km/h 88 % 0.00 in /  0 mm
12:51 46.1 °F /  7.8 °C 42.4 °F /  5.8 °C 30.17 in /  1021.6 hPa NW 5.0 mph /  8 km/h 5.0 mph /  8 km/h 87 % 0.00 in /  0 mm
12:56 45.8 °F /  7.7 °C 42.2 °F /  5.7 °C 30.18 in /  1021.9 hPa NW 3.5 mph /  5.6 km/h 3.5 mph /  5.6 km/h 87 % 0.01 in /  0.25 mm
12:57 45.8 °F /  7.7 °C 42.4 °F /  5.8 °C 30.18 in /  1021.9 hPa NW 3.5 mph /  5.6 km/h 3.5 mph /  5.6 km/h 88 % 0.01 in /  0.25 mm
13:02 45.5 °F /  7.5 °C 41.9 °F /  5.5 °C 30.18 in /  1021.9 hPa NW 5.0 mph /  8 km/h 5.0 mph /  8 km/h 87 % 0.01 in /  0.25 mm
13:06 45.2 °F /  7.3 °C 41.6 °F /  5.3 °C 30.18 in /  1021.9 hPa NNW 6.9 mph /  11.1 km/h 6.9 mph /  11.1 km/h 87 % 0.02 in /  0.51 mm
13:08 45.1 °F /  7.3 °C 41.5 °F /  5.3 °C 30.18 in /  1021.9 hPa NW 3.5 mph /  5.6 km/h 3.5 mph /  5.6 km/h 87 % 0.03 in /  0.76 mm
13:12 44.9 °F /  7.2 °C 41.6 °F /  5.3 °C 30.17 in /  1021.6 hPa NNW 3.5 mph /  5.6 km/h 3.5 mph /  5.6 km/h 88 % 0.03 in /  0.76 mm
13:17 44.7 °F /  7.1 °C 41.7 °F /  5.4 °C 30.17 in /  1021.6 hPa NW 2.3 mph /  3.7 km/h 2.3 mph /  3.7 km/h 89 % 0.04 in /  1.02 mm
13:22 44.7 °F /  7.1 °C 41.9 °F /  5.5 °C 30.17 in /  1021.6 hPa NW 2.3 mph /  3.7 km/h 2.3 mph /  3.7 km/h 90 % 0.04 in /  1.02 mm
13:23 44.7 °F /  7.1 °C 41.9 °F /  5.5 °C 30.17 in /  1021.6 hPa NW 3.0 mph /  4.8 km/h 3.0 mph /  4.8 km/h 90 % 0.04 in /  1.02 mm
13:28 44.8 °F /  7.1 °C 42.0 °F /  5.6 °C 30.17 in /  1021.6 hPa NW 3.5 mph /  5.6 km/h 3.5 mph /  5.6 km/h 90 % 0.04 in /  1.02 mm
13:29 44.8 °F /  7.1 °C 42.0 °F /  5.6 °C 30.17 in /  1021.6 hPa NW 1.2 mph /  1.9 km/h 1.2 mph /  1.9 km/h 90 % 0.04 in /  1.02 mm
13:31 44.9 °F /  7.2 °C 42.4 °F /  5.8 °C 30.17 in /  1021.6 hPa NNW 2.3 mph /  3.7 km/h 2.3 mph /  3.7 km/h 91 % 0.04 in /  1.02 mm
13:35 45.0 °F /  7.2 °C 42.2 °F /  5.7 °C 30.16 in /  1021.2 hPa NNW 4.6 mph /  7.4 km/h 4.6 mph /  7.4 km/h 90 % 0.04 in /  1.02 mm
13:40 45.5 °F /  7.5 °C 43.0 °F /  6.1 °C 30.16 in /  1021.2 hPa WNW 3.5 mph /  5.6 km/h 3.5 mph /  5.6 km/h 91 % 0.04 in /  1.02 mm
13:41 45.7 °F /  7.6 °C 42.9 °F /  6.1 °C 30.16 in /  1021.2 hPa North 5.8 mph /  9.3 km/h 5.8 mph /  9.3 km/h 90 % 0.04 in /  1.02 mm
13:44 46.0 °F /  7.8 °C 43.2 °F /  6.2 °C 30.16 in /  1021.2 hPa NW 3.5 mph /  5.6 km/h 3.5 mph /  5.6 km/h 90 % 0.04 in /  1.02 mm
13:49 46.7 °F /  8.2 °C 43.9 °F /  6.6 °C 30.15 in /  1020.9 hPa WNW 3.5 mph /  5.6 km/h 3.5 mph /  5.6 km/h 90 % 0.04 in /  1.02 mm
13:50 46.8 °F /  8.2 °C 44.0 °F /  6.7 °C 30.15 in /  1020.9 hPa NNW 3.5 mph /  5.6 km/h 3.5 mph /  5.6 km/h 90 % 0.04 in /  1.02 mm
13:55 46.8 °F /  8.2 °C 43.1 °F /  6.2 °C 30.16 in /  1021.2 hPa NW 3.5 mph /  5.6 km/h 3.5 mph /  5.6 km/h 87 % 0.03 in /  0.76 mm
13:57 47.0 °F /  8.3 °C 43.3 °F /  6.3 °C 30.16 in /  1021.2 hPa NNW 3.5 mph /  5.6 km/h 3.5 mph /  5.6 km/h 87 % 0.03 in /  0.76 mm
14:01 47.4 °F /  8.6 °C 43.4 °F /  6.3 °C 30.16 in /  1021.2 hPa NW 5.8 mph /  9.3 km/h 5.8 mph /  9.3 km/h 86 % 0.03 in /  0.76 mm
14:03 47.5 °F /  8.6 °C 43.2 °F /  6.2 °C 30.16 in /  1021.2 hPa NW 5.0 mph /  8 km/h 5.0 mph /  8 km/h 85 % 0.03 in /  0.76 mm
14:08 47.8 °F /  8.8 °C 43.2 °F /  6.2 °C 30.16 in /  1021.2 hPa WNW 3.5 mph /  5.6 km/h 3.5 mph /  5.6 km/h 84 % 0.01 in /  0.25 mm
14:09 47.9 °F /  8.8 °C 43.3 °F /  6.3 °C 30.16 in /  1021.2 hPa WNW 3.5 mph /  5.6 km/h 3.5 mph /  5.6 km/h 84 % 0.01 in /  0.25 mm
14:14 48.3 °F /  9.1 °C 43.1 °F /  6.2 °C 30.16 in /  1021.2 hPa NW 5.8 mph /  9.3 km/h 5.8 mph /  9.3 km/h 82 % 0.00 in /  0 mm
14:15 48.3 °F /  9.1 °C 43.1 °F /  6.2 °C 30.16 in /  1021.2 hPa North 4.6 mph /  7.4 km/h 4.6 mph /  7.4 km/h 82 % 0.00 in /  0 mm
14:20 48.8 °F /  9.3 °C 42.9 °F /  6.1 °C 30.16 in /  1021.2 hPa North 4.0 mph /  6.4 km/h 4.0 mph /  6.4 km/h 80 % 0.00 in /  0 mm
14:22 48.9 °F /  9.4 °C 43.3 °F /  6.3 °C 30.16 in /  1021.2 hPa NW 4.0 mph /  6.4 km/h 4.0 mph /  6.4 km/h 81 % 0.00 in /  0 mm
14:23 49.0 °F /  9.4 °C 42.8 °F /  6 °C 30.16 in /  1021.2 hPa WNW 5.8 mph /  9.3 km/h 5.8 mph /  9.3 km/h 79 % 0.00 in /  0 mm
14:28 49.1 °F /  9.5 °C 42.9 °F /  6.1 °C 30.16 in /  1021.2 hPa NW 7.0 mph /  11.3 km/h 7.0 mph /  11.3 km/h 79 % 0.00 in /  0 mm
14:30 49.1 °F /  9.5 °C 42.5 °F /  5.8 °C 30.16 in /  1021.2 hPa North 6.9 mph /  11.1 km/h 6.9 mph /  11.1 km/h 78 % 0.00 in /  0 mm
14:32 49.1 °F /  9.5 °C 42.9 °F /  6.1 °C 30.16 in /  1021.2 hPa WNW 4.0 mph /  6.4 km/h 4.0 mph /  6.4 km/h 79 % 0.00 in /  0 mm
14:37 49.1 °F /  9.5 °C 42.9 °F /  6.1 °C 30.16 in /  1021.2 hPa NW 3.5 mph /  5.6 km/h 3.5 mph /  5.6 km/h 79 % 0.00 in /  0 mm
14:41 49.2 °F /  9.6 °C 43.3 °F /  6.3 °C 30.16 in /  1021.2 hPa NW 2.3 mph /  3.7 km/h 2.3 mph /  3.7 km/h 80 % 0.00 in /  0 mm
14:44 49.5 °F /  9.7 °C 42.9 °F /  6.1 °C 30.16 in /  1021.2 hPa NW 5.8 mph /  9.3 km/h 5.8 mph /  9.3 km/h 78 % 0.00 in /  0 mm
14:49 49.5 °F /  9.7 °C 42.2 °F /  5.7 °C 30.16 in /  1021.2 hPa NW 6.9 mph /  11.1 km/h 6.9 mph /  11.1 km/h 76 % 0.00 in /  0 mm
14:52 49.6 °F /  9.8 °C 42.3 °F /  5.7 °C 30.16 in /  1021.2 hPa NNW 5.8 mph /  9.3 km/h 5.8 mph /  9.3 km/h 76 % 0.00 in /  0 mm
14:54 49.6 °F /  9.8 °C 42.0 °F /  5.6 °C 30.16 in /  1021.2 hPa NW 6.9 mph /  11.1 km/h 6.9 mph /  11.1 km/h 75 % 0.00 in /  0 mm
14:58 49.7 °F /  9.8 °C 42.1 °F /  5.6 °C 30.16 in /  1021.2 hPa WSW 3.5 mph /  5.6 km/h 3.5 mph /  5.6 km/h 75 % 0.00 in /  0 mm
15:00 49.8 °F /  9.9 °C 42.2 °F /  5.7 °C 30.16 in /  1021.2 hPa North 2.3 mph /  3.7 km/h 2.7 mph /  4.3 km/h 75 % 0.00 in /  0 mm
15:03 49.8 °F /  9.9 °C 42.2 °F /  5.7 °C 30.16 in /  1021.2 hPa NW 3.5 mph /  5.6 km/h 3.5 mph /  5.6 km/h 75 % 0.00 in /  0 mm
15:08 49.8 °F /  9.9 °C 42.2 °F /  5.7 °C 30.16 in /  1021.2 hPa West 4.6 mph /  7.4 km/h 4.6 mph /  7.4 km/h 75 % 0.00 in /  0 mm
15:09 49.8 °F /  9.9 °C 42.2 °F /  5.7 °C 30.16 in /  1021.2 hPa NW 3.5 mph /  5.6 km/h 3.5 mph /  5.6 km/h 75 % 0.00 in /  0 mm
15:12 49.7 °F /  9.8 °C 42.1 °F /  5.6 °C 30.16 in /  1021.2 hPa NW 5.8 mph /  9.3 km/h 5.8 mph /  9.3 km/h 75 % 0.00 in /  0 mm
15:14 49.7 °F /  9.8 °C 42.1 °F /  5.6 °C 30.16 in /  1021.2 hPa North 3.5 mph /  5.6 km/h 3.5 mph /  5.6 km/h 75 % 0.00 in /  0 mm
15:19 49.9 °F /  9.9 °C 42.3 °F /  5.7 °C 30.16 in /  1021.2 hPa NW 2.0 mph /  3.2 km/h 2.0 mph /  3.2 km/h 75 % 0.00 in /  0 mm
15:20 49.9 °F /  9.9 °C 42.3 °F /  5.7 °C 30.16 in /  1021.2 hPa WNW 3.5 mph /  5.6 km/h 3.5 mph /  5.6 km/h 75 % 0.00 in /  0 mm
15:24 49.8 °F /  9.9 °C 41.8 °F /  5.4 °C 30.16 in /  1021.2 hPa NW 4.6 mph /  7.4 km/h 4.6 mph /  7.4 km/h 74 % 0.00 in /  0 mm
15:25 49.8 °F /  9.9 °C 41.8 °F /  5.4 °C 30.16 in /  1021.2 hPa NW 3.5 mph /  5.6 km/h 3.5 mph /  5.6 km/h 74 % 0.00 in /  0 mm
15:30 49.9 °F /  9.9 °C 41.9 °F /  5.5 °C 30.16 in /  1021.2 hPa NW 2.3 mph /  3.7 km/h 2.3 mph /  3.7 km/h 74 % 0.00 in /  0 mm
15:35 49.9 °F /  9.9 °C 41.9 °F /  5.5 °C 30.16 in /  1021.2 hPa NW 3.5 mph /  5.6 km/h 3.5 mph /  5.6 km/h 74 % 0.00 in /  0 mm
15:36 49.8 °F /  9.9 °C 41.8 °F /  5.4 °C 30.16 in /  1021.2 hPa NW 2.3 mph /  3.7 km/h 2.3 mph /  3.7 km/h 74 % 0.00 in /  0 mm
15:38 49.8 °F /  9.9 °C 41.8 °F /  5.4 °C 30.16 in /  1021.2 hPa NW 4.6 mph /  7.4 km/h 4.6 mph /  7.4 km/h 74 % 0.00 in /  0 mm
15:41 49.7 °F /  9.8 °C 41.7 °F /  5.4 °C 30.16 in /  1021.2 hPa NW 1.0 mph /  1.6 km/h   74 % 0.00 in /  0 mm
15:46 49.7 °F /  9.8 °C 41.7 °F /  5.4 °C 30.16 in /  1021.2 hPa NW 2.3 mph /  3.7 km/h 2.3 mph /  3.7 km/h 74 % 0.00 in /  0 mm
15:47 49.7 °F /  9.8 °C 41.7 °F /  5.4 °C 30.16 in /  1021.2 hPa NW 1.2 mph /  1.9 km/h 1.2 mph /  1.9 km/h 74 % 0.00 in /  0 mm
15:51 49.7 °F /  9.8 °C 41.7 °F /  5.4 °C 30.15 in /  1020.9 hPa WNW 1.2 mph /  1.9 km/h 1.2 mph /  1.9 km/h 74 % 0.00 in /  0 mm
15:55 49.6 °F /  9.8 °C 41.7 °F /  5.4 °C 30.15 in /  1020.9 hPa NW 1.2 mph /  1.9 km/h 1.2 mph /  1.9 km/h 74 % 0.00 in /  0 mm
15:58 49.6 °F /  9.8 °C 41.7 °F /  5.4 °C 30.15 in /  1020.9 hPa WNW 1.2 mph /  1.9 km/h 1.2 mph /  1.9 km/h 74 % 0.00 in /  0 mm
16:00 49.6 °F /  9.8 °C 41.7 °F /  5.4 °C 30.15 in /  1020.9 hPa North 1.2 mph /  1.9 km/h 1.2 mph /  1.9 km/h 74 % 0.00 in /  0 mm
16:03 49.5 °F /  9.7 °C 41.6 °F /  5.3 °C 30.15 in /  1020.9 hPa WNW 2.3 mph /  3.7 km/h 2.3 mph /  3.7 km/h 74 % 0.00 in /  0 mm
16:08 49.5 °F /  9.7 °C 41.6 °F /  5.3 °C 30.15 in /  1020.9 hPa NW 1.2 mph /  1.9 km/h   74 % 0.00 in /  0 mm
16:12 49.4 °F /  9.7 °C 41.5 °F /  5.3 °C 30.15 in /  1020.9 hPa Calm     74 % 0.00 in /  0 mm
16:14 49.3 °F /  9.6 °C 41.7 °F /  5.4 °C 30.15 in /  1020.9 hPa WNW 2.3 mph /  3.7 km/h 2.3 mph /  3.7 km/h 75 % 0.00 in /  0 mm
16:19 49.2 °F /  9.6 °C 41.6 °F /  5.3 °C 30.15 in /  1020.9 hPa North 1.2 mph /  1.9 km/h 1.2 mph /  1.9 km/h 75 % 0.00 in /  0 mm
16:21 49.1 °F /  9.5 °C 41.5 °F /  5.3 °C 30.15 in /  1020.9 hPa Calm     75 % 0.00 in /  0 mm
16:22 49.1 °F /  9.5 °C 41.5 °F /  5.3 °C 30.15 in /  1020.9 hPa NNE 1.0 mph /  1.6 km/h 1.0 mph /  1.6 km/h 75 % 0.00 in /  0 mm
16:27 48.9 °F /  9.4 °C 41.3 °F /  5.2 °C 30.15 in /  1020.9 hPa NNE 1.2 mph /  1.9 km/h 1.2 mph /  1.9 km/h 75 % 0.00 in /  0 mm
16:28 48.9 °F /  9.4 °C 41.3 °F /  5.2 °C 30.15 in /  1020.9 hPa Calm     75 % 0.00 in /  0 mm
16:33 48.7 °F /  9.3 °C 41.5 °F /  5.3 °C 30.15 in /  1020.9 hPa Calm     76 % 0.00 in /  0 mm
16:38 48.3 °F /  9.1 °C 41.1 °F /  5.1 °C 30.15 in /  1020.9 hPa Calm     76 % 0.00 in /  0 mm
16:43 47.9 °F /  8.8 °C 41.0 °F /  5 °C 30.15 in /  1020.9 hPa Calm     77 % 0.00 in /  0 mm
16:44 47.7 °F /  8.7 °C 40.8 °F /  4.9 °C 30.15 in /  1020.9 hPa Calm     77 % 0.00 in /  0 mm
16:49 47.2 °F /  8.4 °C 41.0 °F /  5 °C 30.15 in /  1020.9 hPa Calm     79 % 0.00 in /  0 mm
16:50 47.1 °F /  8.4 °C 40.9 °F /  4.9 °C 30.15 in /  1020.9 hPa Calm     79 % 0.00 in /  0 mm
16:51 47.0 °F /  8.3 °C 40.8 °F /  4.9 °C 30.15 in /  1020.9 hPa Calm     79 % 0.00 in /  0 mm
16:56 46.4 °F /  8 °C 40.9 °F /  4.9 °C 30.15 in /  1020.9 hPa Calm     81 % 0.00 in /  0 mm
16:57 46.3 °F /  7.9 °C 40.8 °F /  4.9 °C 30.15 in /  1020.9 hPa Calm     81 % 0.00 in /  0 mm
17:02 45.9 °F /  7.7 °C 40.7 °F /  4.8 °C 30.15 in /  1020.9 hPa Calm     82 % 0.00 in /  0 mm
17:03 45.7 °F /  7.6 °C 40.5 °F /  4.7 °C 30.16 in /  1021.2 hPa Calm     82 % 0.00 in /  0 mm
17:08 45.3 °F /  7.4 °C 40.4 °F /  4.7 °C 30.16 in /  1021.2 hPa Calm     83 % 0.00 in /  0 mm
17:13 45.0 °F /  7.2 °C 40.5 °F /  4.7 °C 30.16 in /  1021.2 hPa Calm     84 % 0.00 in /  0 mm
17:15 44.9 °F /  7.2 °C 40.4 °F /  4.7 °C 30.16 in /  1021.2 hPa Calm     84 % 0.00 in /  0 mm
17:22 44.6 °F /  7 °C 40.4 °F /  4.7 °C 30.16 in /  1021.2 hPa Calm     85 % 0.00 in /  0 mm
17:27 44.5 °F /  6.9 °C 40.6 °F /  4.8 °C 30.16 in /  1021.2 hPa Calm     86 % 0.00 in /  0 mm
17:32 44.4 °F /  6.9 °C 40.5 °F /  4.7 °C 30.16 in /  1021.2 hPa Calm     86 % 0.00 in /  0 mm
17:35 44.3 °F /  6.8 °C 40.4 °F /  4.7 °C 30.16 in /  1021.2 hPa Calm     86 % 0.00 in /  0 mm
17:39 44.1 °F /  6.7 °C 40.2 °F /  4.6 °C 30.16 in /  1021.2 hPa Calm     86 % 0.00 in /  0 mm
17:40 44.1 °F /  6.7 °C 40.2 °F /  4.6 °C 30.16 in /  1021.2 hPa Calm     86 % 0.00 in /  0 mm
17:45 43.8 °F /  6.6 °C 40.2 °F /  4.6 °C 30.16 in /  1021.2 hPa Calm     87 % 0.00 in /  0 mm
17:50 43.4 °F /  6.3 °C 40.1 °F /  4.5 °C 30.16 in /  1021.2 hPa Calm     88 % 0.00 in /  0 mm
17:53 43.2 °F /  6.2 °C 39.9 °F /  4.4 °C 30.16 in /  1021.2 hPa Calm     88 % 0.00 in /  0 mm
17:54 43.1 °F /  6.2 °C 39.8 °F /  4.3 °C 30.16 in /  1021.2 hPa Calm     88 % 0.00 in /  0 mm
17:59 42.7 °F /  5.9 °C 39.4 °F /  4.1 °C 30.16 in /  1021.2 hPa Calm     88 % 0.00 in /  0 mm
18:03 42.5 °F /  5.8 °C 39.5 °F /  4.2 °C 30.16 in /  1021.2 hPa Calm     89 % 0.00 in /  0 mm
18:04 42.4 °F /  5.8 °C 39.4 °F /  4.1 °C 30.16 in /  1021.2 hPa Calm     89 % 0.00 in /  0 mm
18:09 42.4 °F /  5.8 °C 39.7 °F /  4.3 °C 30.17 in /  1021.6 hPa Calm     90 % 0.00 in /  0 mm
18:10 42.4 °F /  5.8 °C 39.7 °F /  4.3 °C 30.17 in /  1021.6 hPa Calm     90 % 0.00 in /  0 mm
18:12 42.4 °F /  5.8 °C 39.7 °F /  4.3 °C 30.17 in /  1021.6 hPa Calm     90 % 0.00 in /  0 mm
18:16 42.6 °F /  5.9 °C 39.9 °F /  4.4 °C 30.17 in /  1021.6 hPa Calm     90 % 0.00 in /  0 mm
18:22 42.8 °F /  6 °C 40.1 °F /  4.5 °C 30.17 in /  1021.6 hPa Calm     90 % 0.00 in /  0 mm
18:27 42.8 °F /  6 °C 39.8 °F /  4.3 °C 30.18 in /  1021.9 hPa Calm     89 % 0.00 in /  0 mm
18:28 42.8 °F /  6 °C 40.1 °F /  4.5 °C 30.18 in /  1021.9 hPa North 1.2 mph /  1.9 km/h   90 % 0.00 in /  0 mm
18:33 42.9 °F /  6.1 °C 40.2 °F /  4.6 °C 30.18 in /  1021.9 hPa Calm     90 % 0.00 in /  0 mm
18:38 43.0 °F /  6.1 °C 40.3 °F /  4.6 °C 30.18 in /  1021.9 hPa Calm     90 % 0.00 in /  0 mm
18:43 43.1 °F /  6.2 °C 40.4 °F /  4.7 °C 30.18 in /  1021.9 hPa Calm     90 % 0.00 in /  0 mm
18:44 43.1 °F /  6.2 °C 40.4 °F /  4.7 °C 30.18 in /  1021.9 hPa Calm     90 % 0.00 in /  0 mm
18:47 43.1 °F /  6.2 °C 40.4 °F /  4.7 °C 30.18 in /  1021.9 hPa North 1.2 mph /  1.9 km/h 1.2 mph /  1.9 km/h 90 % 0.00 in /  0 mm
18:50 43.1 °F /  6.2 °C 40.4 °F /  4.7 °C 30.18 in /  1021.9 hPa Calm     90 % 0.00 in /  0 mm
18:54 43.1 °F /  6.2 °C 40.7 °F /  4.8 °C 30.19 in /  1022.2 hPa Calm     91 % 0.00 in /  0 mm
18:56 43.1 °F /  6.2 °C 40.7 °F /  4.8 °C 30.19 in /  1022.2 hPa Calm     91 % 0.00 in /  0 mm
19:01 43.2 °F /  6.2 °C 40.8 °F /  4.9 °C 30.19 in /  1022.2 hPa Calm     91 % 0.00 in /  0 mm
19:06 43.3 °F /  6.3 °C 40.6 °F /  4.8 °C 30.19 in /  1022.2 hPa Calm     90 % 0.00 in /  0 mm
19:07 43.3 °F /  6.3 °C 40.6 °F /  4.8 °C 30.19 in /  1022.2 hPa Calm     90 % 0.00 in /  0 mm
19:12 43.5 °F /  6.4 °C 40.8 °F /  4.9 °C 30.19 in /  1022.2 hPa Calm     90 % 0.00 in /  0 mm
19:16 43.6 °F /  6.4 °C 40.9 °F /  4.9 °C 30.19 in /  1022.2 hPa Calm     90 % 0.00 in /  0 mm
19:21 43.7 °F /  6.5 °C 41.0 °F /  5 °C 30.19 in /  1022.2 hPa Calm     90 % 0.00 in /  0 mm
19:23 43.8 °F /  6.6 °C 41.1 °F /  5.1 °C 30.19 in /  1022.2 hPa Calm     90 % 0.00 in /  0 mm
19:28 43.9 °F /  6.6 °C 41.2 °F /  5.1 °C 30.19 in /  1022.2 hPa Calm     90 % 0.00 in /  0 mm
19:29 43.9 °F /  6.6 °C 41.2 °F /  5.1 °C 30.19 in /  1022.2 hPa Calm     90 % 0.00 in /  0 mm
19:34 44.0 °F /  6.7 °C 41.3 °F /  5.2 °C 30.19 in /  1022.2 hPa Calm     90 % 0.00 in /  0 mm
19:36 44.0 °F /  6.7 °C 41.0 °F /  5 °C 30.19 in /  1022.2 hPa Calm     89 % 0.00 in /  0 mm
19:38 44.0 °F /  6.7 °C 41.0 °F /  5 °C 30.19 in /  1022.2 hPa Calm     89 % 0.00 in /  0 mm
19:42 44.0 °F /  6.7 °C 41.3 °F /  5.2 °C 30.20 in /  1022.6 hPa Calm     90 % 0.00 in /  0 mm
19:47 43.9 °F /  6.6 °C 41.2 °F /  5.1 °C 30.20 in /  1022.6 hPa Calm     90 % 0.00 in /  0 mm
19:48 43.9 °F /  6.6 °C 41.2 °F /  5.1 °C 30.20 in /  1022.6 hPa Calm     90 % 0.00 in /  0 mm
19:51 43.8 °F /  6.6 °C 41.1 °F /  5.1 °C 30.20 in /  1022.6 hPa Calm     90 % 0.00 in /  0 mm
19:56 43.6 °F /  6.4 °C 40.9 °F /  4.9 °C 30.20 in /  1022.6 hPa NNE 1.2 mph /  1.9 km/h   90 % 0.00 in /  0 mm
19:58 43.5 °F /  6.4 °C 40.8 °F /  4.9 °C 30.20 in /  1022.6 hPa NNE 1.2 mph /  1.9 km/h 1.2 mph /  1.9 km/h 90 % 0.00 in /  0 mm
20:03 43.2 °F /  6.2 °C 40.5 °F /  4.7 °C 30.20 in /  1022.6 hPa NNE 2.3 mph /  3.7 km/h 2.3 mph /  3.7 km/h 90 % 0.00 in /  0 mm
20:05 43.1 °F /  6.2 °C 40.4 °F /  4.7 °C 30.20 in /  1022.6 hPa NNE 3.5 mph /  5.6 km/h 3.5 mph /  5.6 km/h 90 % 0.00 in /  0 mm
20:10 42.9 °F /  6.1 °C 40.5 °F /  4.7 °C 30.21 in /  1022.9 hPa NNE 1.2 mph /  1.9 km/h   91 % 0.00 in /  0 mm
20:14 42.8 °F /  6 °C 40.4 °F /  4.7 °C 30.20 in /  1022.6 hPa NNE 1.2 mph /  1.9 km/h   91 % 0.00 in /  0 mm
20:19 42.5 °F /  5.8 °C 40.1 °F /  4.5 °C 30.20 in /  1022.6 hPa Calm     91 % 0.00 in /  0 mm
20:20 42.4 °F /  5.8 °C 40.0 °F /  4.4 °C 30.20 in /  1022.6 hPa NNE 1.2 mph /  1.9 km/h 1.2 mph /  1.9 km/h 91 % 0.00 in /  0 mm
20:25 42.2 °F /  5.7 °C 39.8 °F /  4.3 °C 30.20 in /  1022.6 hPa Calm     91 % 0.00 in /  0 mm
20:26 42.1 °F /  5.6 °C 39.7 °F /  4.3 °C 30.20 in /  1022.6 hPa Calm     91 % 0.00 in /  0 mm
20:29 42.0 °F /  5.6 °C 39.6 °F /  4.2 °C 30.20 in /  1022.6 hPa Calm   0.1 mph /  0.2 km/h 91 % 0.00 in /  0 mm
20:34 41.8 °F /  5.4 °C 39.6 °F /  4.2 °C 30.20 in /  1022.6 hPa Calm     92 % 0.00 in /  0 mm
20:39 41.6 °F /  5.3 °C 39.4 °F /  4.1 °C 30.20 in /  1022.6 hPa NNE 1.2 mph /  1.9 km/h 1.2 mph /  1.9 km/h 92 % 0.00 in /  0 mm
20:41 41.5 °F /  5.3 °C 39.3 °F /  4.1 °C 30.20 in /  1022.6 hPa NNE 1.2 mph /  1.9 km/h   92 % 0.00 in /  0 mm
20:46 41.3 °F /  5.2 °C 39.2 °F /  4 °C 30.20 in /  1022.6 hPa NNE 2.3 mph /  3.7 km/h 2.3 mph /  3.7 km/h 92 % 0.00 in /  0 mm
20:51 41.1 °F /  5.1 °C 39.0 °F /  3.9 °C 30.20 in /  1022.6 hPa NNE 1.2 mph /  1.9 km/h 1.2 mph /  1.9 km/h 92 % 0.00 in /  0 mm
20:56 41.0 °F /  5 °C 39.1 °F /  3.9 °C 30.20 in /  1022.6 hPa NNE 1.0 mph /  1.6 km/h   93 % 0.00 in /  0 mm
21:01 40.8 °F /  4.9 °C 38.9 °F /  3.8 °C 30.21 in /  1022.9 hPa NNE 1.2 mph /  1.9 km/h 1.2 mph /  1.9 km/h 93 % 0.00 in /  0 mm
21:05 40.6 °F /  4.8 °C 38.7 °F /  3.7 °C 30.21 in /  1022.9 hPa Calm     93 % 0.00 in /  0 mm
21:10 40.4 °F /  4.7 °C 38.5 °F /  3.6 °C 30.21 in /  1022.9 hPa NNE 1.2 mph /  1.9 km/h 1.2 mph /  1.9 km/h 93 % 0.00 in /  0 mm
21:13 40.4 °F /  4.7 °C 38.5 °F /  3.6 °C 30.20 in /  1022.6 hPa NNE 1.2 mph /  1.9 km/h 1.2 mph /  1.9 km/h 93 % 0.00 in /  0 mm
21:20 40.3 °F /  4.6 °C 38.4 °F /  3.6 °C 30.20 in /  1022.6 hPa NNE 1.2 mph /  1.9 km/h 1.2 mph /  1.9 km/h 93 % 0.00 in /  0 mm
21:25 40.1 °F /  4.5 °C 38.2 °F /  3.4 °C 30.20 in /  1022.6 hPa NNE 1.2 mph /  1.9 km/h   93 % 0.00 in /  0 mm
21:26 40.1 °F /  4.5 °C 38.2 °F /  3.4 °C 30.20 in /  1022.6 hPa NNE 1.2 mph /  1.9 km/h 1.2 mph /  1.9 km/h 93 % 0.00 in /  0 mm
21:31 39.9 °F /  4.4 °C 38.0 °F /  3.3 °C 30.20 in /  1022.6 hPa NNE 1.2 mph /  1.9 km/h 1.2 mph /  1.9 km/h 93 % 0.00 in /  0 mm
21:32 39.9 °F /  4.4 °C 38.0 °F /  3.3 °C 30.20 in /  1022.6 hPa NNE 1.2 mph /  1.9 km/h   93 % 0.00 in /  0 mm
21:37 39.8 °F /  4.3 °C 38.2 °F /  3.4 °C 30.20 in /  1022.6 hPa Calm     94 % 0.00 in /  0 mm
21:38 39.7 °F /  4.3 °C 38.1 °F /  3.4 °C 30.20 in /  1022.6 hPa Calm     94 % 0.00 in /  0 mm
21:43 39.6 °F /  4.2 °C 38.0 °F /  3.3 °C 30.20 in /  1022.6 hPa NNE 1.2 mph /  1.9 km/h   94 % 0.00 in /  0 mm
21:44 39.6 °F /  4.2 °C 38.0 °F /  3.3 °C 30.20 in /  1022.6 hPa Calm     94 % 0.00 in /  0 mm
21:45 39.5 °F /  4.2 °C 37.9 °F /  3.3 °C 30.20 in /  1022.6 hPa NNE 1.2 mph /  1.9 km/h   94 % 0.00 in /  0 mm
21:50 39.3 °F /  4.1 °C 37.7 °F /  3.2 °C 30.20 in /  1022.6 hPa Calm     94 % 0.00 in /  0 mm
21:54 39.3 °F /  4.1 °C 37.7 °F /  3.2 °C 30.20 in /  1022.6 hPa Calm     94 % 0.00 in /  0 mm
21:55 39.3 °F /  4.1 °C 37.7 °F /  3.2 °C 30.20 in /  1022.6 hPa Calm     94 % 0.00 in /  0 mm
21:59 39.1 °F /  3.9 °C 37.5 °F /  3.1 °C 30.20 in /  1022.6 hPa NNE 1.2 mph /  1.9 km/h   94 % 0.00 in /  0 mm
22:01 39.1 °F /  3.9 °C 37.5 °F /  3.1 °C 30.20 in /  1022.6 hPa Calm     94 % 0.00 in /  0 mm
22:06 39.1 °F /  3.9 °C 37.5 °F /  3.1 °C 30.20 in /  1022.6 hPa Calm     94 % 0.00 in /  0 mm
22:07 39.1 °F /  3.9 °C 37.5 °F /  3.1 °C 30.20 in /  1022.6 hPa Calm     94 % 0.00 in /  0 mm
22:13 39.1 °F /  3.9 °C 37.5 °F /  3.1 °C 30.20 in /  1022.6 hPa NNE 1.2 mph /  1.9 km/h 1.2 mph /  1.9 km/h 94 % 0.00 in /  0 mm
22:16 39.1 °F /  3.9 °C 37.5 °F /  3.1 °C 30.20 in /  1022.6 hPa NNE 1.2 mph /  1.9 km/h 1.2 mph /  1.9 km/h 94 % 0.00 in /  0 mm
22:21 39.1 °F /  3.9 °C 37.5 °F /  3.1 °C 30.21 in /  1022.9 hPa NNE 1.2 mph /  1.9 km/h   94 % 0.00 in /  0 mm
22:26 38.9 °F /  3.8 °C 37.3 °F /  2.9 °C 30.21 in /  1022.9 hPa NNE 1.2 mph /  1.9 km/h 1.2 mph /  1.9 km/h 94 % 0.00 in /  0 mm
22:31 38.7 °F /  3.7 °C 37.1 °F /  2.8 °C 30.21 in /  1022.9 hPa NNE 1.2 mph /  1.9 km/h 1.2 mph /  1.9 km/h 94 % 0.00 in /  0 mm
22:33 38.7 °F /  3.7 °C 37.1 °F /  2.8 °C 30.21 in /  1022.9 hPa NNE 1.2 mph /  1.9 km/h   94 % 0.00 in /  0 mm
22:38 38.7 °F /  3.7 °C 37.4 °F /  3 °C 30.21 in /  1022.9 hPa NNE 1.2 mph /  1.9 km/h 1.2 mph /  1.9 km/h 95 % 0.00 in /  0 mm
22:39 38.8 °F /  3.8 °C 37.5 °F /  3.1 °C 30.21 in /  1022.9 hPa NNE 3.5 mph /  5.6 km/h 3.5 mph /  5.6 km/h 95 % 0.00 in /  0 mm
22:42 38.8 °F /  3.8 °C 37.5 °F /  3.1 °C 30.21 in /  1022.9 hPa NNE 1.2 mph /  1.9 km/h 1.2 mph /  1.9 km/h 95 % 0.00 in /  0 mm
22:45 38.8 °F /  3.8 °C 37.5 °F /  3.1 °C 30.21 in /  1022.9 hPa NNE 1.2 mph /  1.9 km/h 1.2 mph /  1.9 km/h 95 % 0.00 in /  0 mm
22:50 38.7 °F /  3.7 °C 37.4 °F /  3 °C 30.21 in /  1022.9 hPa NNE 1.2 mph /  1.9 km/h   95 % 0.00 in /  0 mm
22:51 38.7 °F /  3.7 °C 37.4 °F /  3 °C 30.21 in /  1022.9 hPa Calm     95 % 0.00 in /  0 mm
22:56 38.5 °F /  3.6 °C 37.2 °F /  2.9 °C 30.21 in /  1022.9 hPa Calm     95 % 0.00 in /  0 mm
22:57 38.5 °F /  3.6 °C 37.2 °F /  2.9 °C 30.21 in /  1022.9 hPa Calm     95 % 0.00 in /  0 mm
23:01 38.3 °F /  3.5 °C 37.0 °F /  2.8 °C 30.21 in /  1022.9 hPa NNE 1.2 mph /  1.9 km/h   95 % 0.00 in /  0 mm
23:06 38.1 °F /  3.4 °C 36.8 °F /  2.7 °C 30.21 in /  1022.9 hPa Calm     95 % 0.00 in /  0 mm
23:07 38.1 °F /  3.4 °C 36.8 °F /  2.7 °C 30.21 in /  1022.9 hPa Calm     95 % 0.00 in /  0 mm
23:11 37.9 °F /  3.3 °C 36.6 °F /  2.6 °C 30.21 in /  1022.9 hPa Calm     95 % 0.00 in /  0 mm
23:13 37.9 °F /  3.3 °C 36.6 °F /  2.6 °C 30.21 in /  1022.9 hPa Calm     95 % 0.00 in /  0 mm
23:18 37.6 °F /  3.1 °C 36.0 °F /  2.2 °C 30.21 in /  1022.9 hPa Calm     94 % 0.00 in /  0 mm
23:21 37.4 °F /  3 °C 36.1 °F /  2.3 °C 30.21 in /  1022.9 hPa Calm     95 % 0.00 in /  0 mm
23:24 37.2 °F /  2.9 °C 35.6 °F /  2 °C 30.21 in /  1022.9 hPa Calm     94 % 0.00 in /  0 mm
23:29 36.9 °F /  2.7 °C 35.3 °F /  1.8 °C 30.21 in /  1022.9 hPa Calm     94 % 0.00 in /  0 mm
23:34 36.7 °F /  2.6 °C 35.4 °F /  1.9 °C 30.21 in /  1022.9 hPa Calm     95 % 0.00 in /  0 mm
23:35 36.7 °F /  2.6 °C 35.4 °F /  1.9 °C 30.21 in /  1022.9 hPa Calm     95 % 0.00 in /  0 mm
23:40 36.4 °F /  2.4 °C 35.1 °F /  1.7 °C 30.21 in /  1022.9 hPa Calm     95 % 0.00 in /  0 mm
23:41 36.3 °F /  2.4 °C 35.0 °F /  1.7 °C 30.21 in /  1022.9 hPa Calm     95 % 0.00 in /  0 mm
23:46 36.1 °F /  2.3 °C 34.8 °F /  1.6 °C 30.21 in /  1022.9 hPa Calm     95 % 0.00 in /  0 mm
23:50 36.1 °F /  2.3 °C 34.8 °F /  1.6 °C 30.21 in /  1022.9 hPa Calm     95 % 0.00 in /  0 mm
23:52 36.0 °F /  2.2 °C 34.7 °F /  1.5 °C 30.21 in /  1022.9 hPa Calm     95 % 0.00 in /  0 mm
23:57 36.1 °F /  2.3 °C 34.8 °F /  1.6 °C 30.21 in /  1022.9 hPa Calm     95 % 0.00 in /  0 mm
23:59 36.2 °F /  2.3 °C 34.9 °F /  1.6 °C 30.21 in /  1022.9 hPa Calm     95 % 0.00 in /  0 mm
Park Place, Exeter, Tulare County, California, USA
Compliments of Weather Underground - 3.5 mb